sensor_id;sensor_type;location;lat;lon;timestamp;P1;durP1;ratioP1;P2;durP2;ratioP2
21731;SDS011;11028;51.156;17.130;2022-11-15T00:01:24;122.90;;;51.95;;
21731;SDS011;11028;51.156;17.130;2022-11-15T00:08:59;111.63;;;52.28;;
21731;SDS011;11028;51.156;17.130;2022-11-15T00:16:37;119.00;;;52.72;;
21731;SDS011;11028;51.156;17.130;2022-11-15T00:24:13;118.82;;;51.38;;
21731;SDS011;11028;51.156;17.130;2022-11-15T00:31:50;125.95;;;53.83;;
21731;SDS011;11028;51.156;17.130;2022-11-15T00:39:26;119.95;;;53.65;;
21731;SDS011;11028;51.156;17.130;2022-11-15T00:47:02;120.75;;;51.95;;
21731;SDS011;11028;51.156;17.130;2022-11-15T00:54:38;109.00;;;51.35;;
21731;SDS011;11028;51.156;17.130;2022-11-15T01:02:17;125.82;;;51.95;;
21731;SDS011;11028;51.156;17.130;2022-11-15T01:09:53;118.03;;;51.10;;
21731;SDS011;11028;51.156;17.130;2022-11-15T01:17:29;108.25;;;48.63;;
21731;SDS011;11028;51.156;17.130;2022-11-15T01:25:05;128.52;;;52.05;;
21731;SDS011;11028;51.156;17.130;2022-11-15T01:32:42;115.13;;;50.40;;
21731;SDS011;11028;51.156;17.130;2022-11-15T01:40:17;106.97;;;48.30;;
21731;SDS011;11028;51.156;17.130;2022-11-15T01:47:54;111.32;;;46.22;;
21731;SDS011;11028;51.156;17.130;2022-11-15T01:55:33;113.78;;;48.35;;
21731;SDS011;11028;51.156;17.130;2022-11-15T02:03:09;107.13;;;45.33;;
21731;SDS011;11028;51.156;17.130;2022-11-15T02:10:45;110.05;;;46.22;;
21731;SDS011;11028;51.156;17.130;2022-11-15T02:18:22;106.35;;;45.88;;
21731;SDS011;11028;51.156;17.130;2022-11-15T02:26:06;101.53;;;44.38;;
21731;SDS011;11028;51.156;17.130;2022-11-15T02:33:59;107.68;;;48.15;;
21731;SDS011;11028;51.156;17.130;2022-11-15T02:41:39;107.63;;;45.83;;
21731;SDS011;11028;51.156;17.130;2022-11-15T02:49:21;110.07;;;44.35;;
21731;SDS011;11028;51.156;17.130;2022-11-15T02:56:58;106.00;;;43.47;;
21731;SDS011;11028;51.156;17.130;2022-11-15T03:04:37;97.80;;;42.95;;
21731;SDS011;11028;51.156;17.130;2022-11-15T03:12:19;101.38;;;44.17;;
21731;SDS011;11028;51.156;17.130;2022-11-15T03:20:05;109.50;;;45.17;;
21731;SDS011;11028;51.156;17.130;2022-11-15T03:27:43;98.90;;;44.88;;
21731;SDS011;11028;51.156;17.130;2022-11-15T03:35:24;96.50;;;41.17;;
21731;SDS011;11028;51.156;17.130;2022-11-15T03:43:02;93.60;;;42.05;;
21731;SDS011;11028;51.156;17.130;2022-11-15T03:50:42;98.60;;;44.03;;
21731;SDS011;11028;51.156;17.130;2022-11-15T03:58:19;90.57;;;43.25;;
21731;SDS011;11028;51.156;17.130;2022-11-15T04:05:56;95.55;;;42.08;;
21731;SDS011;11028;51.156;17.130;2022-11-15T04:13:31;90.78;;;42.55;;
21731;SDS011;11028;51.156;17.130;2022-11-15T04:21:08;104.00;;;43.70;;
21731;SDS011;11028;51.156;17.130;2022-11-15T04:29:01;102.95;;;42.00;;
21731;SDS011;11028;51.156;17.130;2022-11-15T04:36:55;103.80;;;41.20;;
21731;SDS011;11028;51.156;17.130;2022-11-15T04:44:51;98.38;;;41.92;;
21731;SDS011;11028;51.156;17.130;2022-11-15T05:01:13;96.90;;;42.15;;
21731;SDS011;11028;51.156;17.130;2022-11-15T05:08:49;100.00;;;42.72;;
21731;SDS011;11028;51.156;17.130;2022-11-15T05:16:26;115.47;;;47.15;;
21731;SDS011;11028;51.156;17.130;2022-11-15T05:24:01;102.85;;;44.13;;
21731;SDS011;11028;51.156;17.130;2022-11-15T05:31:40;105.85;;;46.85;;
21731;SDS011;11028;51.156;17.130;2022-11-15T05:39:16;117.75;;;47.70;;
21731;SDS011;11028;51.156;17.130;2022-11-15T05:46:55;107.75;;;47.30;;
21731;SDS011;11028;51.156;17.130;2022-11-15T05:54:31;95.97;;;42.83;;
21731;SDS011;11028;51.156;17.130;2022-11-15T06:02:08;103.10;;;45.00;;
21731;SDS011;11028;51.156;17.130;2022-11-15T06:09:44;106.80;;;44.17;;
21731;SDS011;11028;51.156;17.130;2022-11-15T06:17:21;99.63;;;42.63;;
21731;SDS011;11028;51.156;17.130;2022-11-15T06:24:56;102.80;;;47.40;;
21731;SDS011;11028;51.156;17.130;2022-11-15T06:32:33;111.78;;;49.20;;
21731;SDS011;11028;51.156;17.130;2022-11-15T06:40:10;117.38;;;47.63;;
21731;SDS011;11028;51.156;17.130;2022-11-15T06:47:47;108.35;;;45.88;;
21731;SDS011;11028;51.156;17.130;2022-11-15T06:55:23;112.07;;;47.30;;
21731;SDS011;11028;51.156;17.130;2022-11-15T07:03:00;113.63;;;50.15;;
21731;SDS011;11028;51.156;17.130;2022-11-15T07:10:35;117.00;;;49.67;;
21731;SDS011;11028;51.156;17.130;2022-11-15T07:18:12;109.40;;;48.65;;
21731;SDS011;11028;51.156;17.130;2022-11-15T07:25:47;108.40;;;46.72;;
21731;SDS011;11028;51.156;17.130;2022-11-15T07:33:24;99.88;;;45.22;;
21731;SDS011;11028;51.156;17.130;2022-11-15T07:41:00;97.70;;;42.97;;
21731;SDS011;11028;51.156;17.130;2022-11-15T07:48:38;88.32;;;42.83;;
21731;SDS011;11028;51.156;17.130;2022-11-15T07:56:13;89.10;;;41.70;;
21731;SDS011;11028;51.156;17.130;2022-11-15T08:03:50;82.30;;;38.67;;
21731;SDS011;11028;51.156;17.130;2022-11-15T08:11:25;84.70;;;42.08;;
21731;SDS011;11028;51.156;17.130;2022-11-15T08:19:02;77.00;;;39.83;;
21731;SDS011;11028;51.156;17.130;2022-11-15T08:26:38;76.38;;;39.05;;
21731;SDS011;11028;51.156;17.130;2022-11-15T08:34:15;70.18;;;37.95;;
21731;SDS011;11028;51.156;17.130;2022-11-15T08:41:50;69.68;;;37.67;;
21731;SDS011;11028;51.156;17.130;2022-11-15T08:49:27;76.03;;;38.55;;
21731;SDS011;11028;51.156;17.130;2022-11-15T08:57:02;63.00;;;35.78;;
21731;SDS011;11028;51.156;17.130;2022-11-15T09:04:40;65.50;;;36.28;;
21731;SDS011;11028;51.156;17.130;2022-11-15T09:12:16;63.55;;;35.22;;
21731;SDS011;11028;51.156;17.130;2022-11-15T09:19:53;61.58;;;35.55;;
21731;SDS011;11028;51.156;17.130;2022-11-15T09:27:28;66.35;;;36.60;;
21731;SDS011;11028;51.156;17.130;2022-11-15T09:35:06;58.88;;;34.35;;
21731;SDS011;11028;51.156;17.130;2022-11-15T09:42:45;60.75;;;33.15;;
21731;SDS011;11028;51.156;17.130;2022-11-15T09:50:30;69.07;;;35.10;;
21731;SDS011;11028;51.156;17.130;2022-11-15T09:57:50;57.90;;;33.15;;
21731;SDS011;11028;51.156;17.130;2022-11-15T10:05:11;55.22;;;32.05;;
21731;SDS011;11028;51.156;17.130;2022-11-15T10:12:31;58.53;;;34.72;;
21731;SDS011;11028;51.156;17.130;2022-11-15T10:19:52;58.55;;;34.35;;
21731;SDS011;11028;51.156;17.130;2022-11-15T10:27:14;54.05;;;28.95;;
21731;SDS011;11028;51.156;17.130;2022-11-15T10:34:35;49.35;;;29.73;;
21731;SDS011;11028;51.156;17.130;2022-11-15T10:41:52;49.30;;;29.85;;
21731;SDS011;11028;51.156;17.130;2022-11-15T10:49:12;50.05;;;30.75;;
21731;SDS011;11028;51.156;17.130;2022-11-15T10:56:31;53.63;;;31.80;;
21731;SDS011;11028;51.156;17.130;2022-11-15T11:03:57;48.67;;;30.98;;
21731;SDS011;11028;51.156;17.130;2022-11-15T11:11:15;50.15;;;28.35;;
21731;SDS011;11028;51.156;17.130;2022-11-15T11:18:34;50.08;;;31.35;;
21731;SDS011;11028;51.156;17.130;2022-11-15T11:33:16;42.33;;;27.02;;
21731;SDS011;11028;51.156;17.130;2022-11-15T11:40:37;43.67;;;26.52;;
21731;SDS011;11028;51.156;17.130;2022-11-15T11:47:59;42.85;;;24.98;;
21731;SDS011;11028;51.156;17.130;2022-11-15T11:55:21;35.40;;;22.35;;
21731;SDS011;11028;51.156;17.130;2022-11-15T12:02:42;35.97;;;21.35;;
21731;SDS011;11028;51.156;17.130;2022-11-15T12:10:02;32.22;;;20.73;;
21731;SDS011;11028;51.156;17.130;2022-11-15T12:17:23;34.95;;;20.67;;
21731;SDS011;11028;51.156;17.130;2022-11-15T12:24:43;32.20;;;20.17;;
21731;SDS011;11028;51.156;17.130;2022-11-15T12:32:02;30.98;;;19.30;;
21731;SDS011;11028;51.156;17.130;2022-11-15T12:39:20;29.60;;;18.55;;
21731;SDS011;11028;51.156;17.130;2022-11-15T13:19:30;26.30;;;18.70;;
21731;SDS011;11028;51.156;17.130;2022-11-15T13:26:49;30.73;;;17.73;;
21731;SDS011;11028;51.156;17.130;2022-11-15T13:34:15;30.85;;;19.70;;
21731;SDS011;11028;51.156;17.130;2022-11-15T13:41:50;30.05;;;17.85;;
21731;SDS011;11028;51.156;17.130;2022-11-15T13:49:08;39.88;;;22.92;;
21731;SDS011;11028;51.156;17.130;2022-11-15T13:56:26;27.88;;;18.05;;
21731;SDS011;11028;51.156;17.130;2022-11-15T14:03:49;25.52;;;15.27;;
21731;SDS011;11028;51.156;17.130;2022-11-15T14:11:09;28.00;;;17.25;;
21731;SDS011;11028;51.156;17.130;2022-11-15T14:18:41;28.65;;;17.13;;
21731;SDS011;11028;51.156;17.130;2022-11-15T14:26:01;29.20;;;17.70;;
21731;SDS011;11028;51.156;17.130;2022-11-15T14:33:19;29.85;;;18.77;;
21731;SDS011;11028;51.156;17.130;2022-11-15T14:40:38;28.88;;;18.73;;
21731;SDS011;11028;51.156;17.130;2022-11-15T14:47:57;37.03;;;20.52;;
21731;SDS011;11028;51.156;17.130;2022-11-15T14:55:15;34.17;;;21.35;;
21731;SDS011;11028;51.156;17.130;2022-11-15T15:02:34;45.25;;;23.38;;
21731;SDS011;11028;51.156;17.130;2022-11-15T15:09:52;38.65;;;21.77;;
21731;SDS011;11028;51.156;17.130;2022-11-15T15:17:09;42.35;;;22.33;;
21731;SDS011;11028;51.156;17.130;2022-11-15T15:24:26;39.90;;;22.42;;
21731;SDS011;11028;51.156;17.130;2022-11-15T15:31:45;38.22;;;22.70;;
21731;SDS011;11028;51.156;17.130;2022-11-15T15:39:01;43.88;;;22.95;;
21731;SDS011;11028;51.156;17.130;2022-11-15T15:46:18;48.63;;;27.52;;
21731;SDS011;11028;51.156;17.130;2022-11-15T15:53:37;50.55;;;28.08;;
21731;SDS011;11028;51.156;17.130;2022-11-15T16:00:54;53.70;;;30.48;;
21731;SDS011;11028;51.156;17.130;2022-11-15T16:08:14;59.33;;;31.30;;
21731;SDS011;11028;51.156;17.130;2022-11-15T16:15:35;73.87;;;35.67;;
21731;SDS011;11028;51.156;17.130;2022-11-15T16:22:52;70.43;;;38.13;;
21731;SDS011;11028;51.156;17.130;2022-11-15T16:30:09;75.55;;;39.90;;
21731;SDS011;11028;51.156;17.130;2022-11-15T16:37:30;103.60;;;46.25;;
21731;SDS011;11028;51.156;17.130;2022-11-15T16:44:47;131.48;;;66.68;;
21731;SDS011;11028;51.156;17.130;2022-11-15T16:52:04;123.88;;;63.78;;
21731;SDS011;11028;51.156;17.130;2022-11-15T16:59:22;109.75;;;56.33;;
21731;SDS011;11028;51.156;17.130;2022-11-15T17:06:39;104.97;;;55.17;;
21731;SDS011;11028;51.156;17.130;2022-11-15T17:13:56;86.03;;;47.35;;
21731;SDS011;11028;51.156;17.130;2022-11-15T17:21:15;91.20;;;49.88;;
21731;SDS011;11028;51.156;17.130;2022-11-15T17:28:33;100.18;;;53.03;;
21731;SDS011;11028;51.156;17.130;2022-11-15T17:35:55;88.93;;;49.25;;
21731;SDS011;11028;51.156;17.130;2022-11-15T17:43:13;81.13;;;44.72;;
21731;SDS011;11028;51.156;17.130;2022-11-15T17:50:31;89.90;;;47.92;;
21731;SDS011;11028;51.156;17.130;2022-11-15T17:57:47;89.15;;;49.72;;
21731;SDS011;11028;51.156;17.130;2022-11-15T18:05:06;108.95;;;60.60;;
21731;SDS011;11028;51.156;17.130;2022-11-15T18:12:23;115.20;;;58.17;;
21731;SDS011;11028;51.156;17.130;2022-11-15T18:19:40;108.25;;;59.08;;
21731;SDS011;11028;51.156;17.130;2022-11-15T18:26:58;124.15;;;70.10;;
21731;SDS011;11028;51.156;17.130;2022-11-15T18:34:15;136.88;;;70.38;;
21731;SDS011;11028;51.156;17.130;2022-11-15T18:41:32;133.35;;;67.93;;
21731;SDS011;11028;51.156;17.130;2022-11-15T18:48:52;127.60;;;64.55;;
21731;SDS011;11028;51.156;17.130;2022-11-15T18:56:10;131.15;;;67.15;;
21731;SDS011;11028;51.156;17.130;2022-11-15T19:03:32;114.47;;;60.63;;
21731;SDS011;11028;51.156;17.130;2022-11-15T19:10:51;116.50;;;60.65;;
21731;SDS011;11028;51.156;17.130;2022-11-15T19:18:07;101.95;;;54.60;;
21731;SDS011;11028;51.156;17.130;2022-11-15T19:25:24;101.82;;;55.00;;
21731;SDS011;11028;51.156;17.130;2022-11-15T19:32:44;118.47;;;64.60;;
21731;SDS011;11028;51.156;17.130;2022-11-15T19:40:01;108.93;;;59.35;;
21731;SDS011;11028;51.156;17.130;2022-11-15T19:47:18;107.80;;;57.28;;
21731;SDS011;11028;51.156;17.130;2022-11-15T19:54:36;111.32;;;59.92;;
21731;SDS011;11028;51.156;17.130;2022-11-15T20:01:56;120.57;;;63.90;;
21731;SDS011;11028;51.156;17.130;2022-11-15T20:09:13;118.90;;;62.17;;
21731;SDS011;11028;51.156;17.130;2022-11-15T20:16:32;125.18;;;64.70;;
21731;SDS011;11028;51.156;17.130;2022-11-15T20:23:49;126.53;;;68.28;;
21731;SDS011;11028;51.156;17.130;2022-11-15T20:31:06;172.68;;;95.78;;
21731;SDS011;11028;51.156;17.130;2022-11-15T20:38:26;192.45;;;103.82;;
21731;SDS011;11028;51.156;17.130;2022-11-15T20:45:43;186.05;;;100.55;;
21731;SDS011;11028;51.156;17.130;2022-11-15T20:53:00;169.32;;;88.88;;
21731;SDS011;11028;51.156;17.130;2022-11-15T21:00:19;158.60;;;84.75;;
21731;SDS011;11028;51.156;17.130;2022-11-15T21:07:39;158.07;;;83.28;;
21731;SDS011;11028;51.156;17.130;2022-11-15T21:14:55;169.70;;;90.38;;
21731;SDS011;11028;51.156;17.130;2022-11-15T21:22:13;165.35;;;87.15;;
21731;SDS011;11028;51.156;17.130;2022-11-15T21:29:30;159.73;;;83.50;;
21731;SDS011;11028;51.156;17.130;2022-11-15T21:36:53;146.10;;;81.20;;
21731;SDS011;11028;51.156;17.130;2022-11-15T21:44:11;125.93;;;64.03;;
21731;SDS011;11028;51.156;17.130;2022-11-15T21:51:28;137.40;;;69.68;;
21731;SDS011;11028;51.156;17.130;2022-11-15T21:58:45;127.90;;;66.10;;
21731;SDS011;11028;51.156;17.130;2022-11-15T22:06:04;131.35;;;67.13;;
21731;SDS011;11028;51.156;17.130;2022-11-15T22:13:21;131.07;;;69.80;;
21731;SDS011;11028;51.156;17.130;2022-11-15T22:20:38;129.13;;;69.13;;
21731;SDS011;11028;51.156;17.130;2022-11-15T22:27:56;133.10;;;69.97;;
21731;SDS011;11028;51.156;17.130;2022-11-15T22:35:13;129.02;;;67.20;;
21731;SDS011;11028;51.156;17.130;2022-11-15T22:42:31;169.32;;;90.00;;
21731;SDS011;11028;51.156;17.130;2022-11-15T22:49:49;176.73;;;91.28;;
21731;SDS011;11028;51.156;17.130;2022-11-15T22:57:06;173.98;;;90.68;;
21731;SDS011;11028;51.156;17.130;2022-11-15T23:04:24;156.73;;;81.53;;
21731;SDS011;11028;51.156;17.130;2022-11-15T23:11:42;146.57;;;73.28;;
21731;SDS011;11028;51.156;17.130;2022-11-15T23:19:16;142.85;;;72.22;;
21731;SDS011;11028;51.156;17.130;2022-11-15T23:26:33;136.02;;;71.75;;
21731;SDS011;11028;51.156;17.130;2022-11-15T23:33:51;125.82;;;65.22;;
21731;SDS011;11028;51.156;17.130;2022-11-15T23:41:14;130.85;;;67.35;;
21731;SDS011;11028;51.156;17.130;2022-11-15T23:48:30;124.07;;;64.57;;
21731;SDS011;11028;51.156;17.130;2022-11-15T23:55:54;132.07;;;66.82;;
